createdAt,value
2022-07-28T00:01:11.613Z,66.30
2022-07-28T00:03:40.789Z,66.50
2022-07-28T00:06:09.628Z,66.80
2022-07-28T00:08:37.501Z,67.00
2022-07-28T00:11:05.360Z,67.40
2022-07-28T00:13:33.233Z,67.40
2022-07-28T00:16:01.171Z,67.90
2022-07-28T00:18:29.071Z,68.00
2022-07-28T00:20:59.039Z,68.30
2022-07-28T00:23:38.593Z,68.50
2022-07-28T00:26:07.803Z,68.70
2022-07-28T00:28:35.932Z,68.90
2022-07-28T00:31:05.539Z,69.10
2022-07-28T00:33:36.201Z,69.10
2022-07-28T00:36:07.080Z,69.20
2022-07-28T00:38:38.337Z,69.30
2022-07-28T00:41:14.776Z,69.00
2022-07-28T00:43:44.785Z,69.20
2022-07-28T00:46:13.881Z,69.30
2022-07-28T00:48:44.672Z,68.90
2022-07-28T00:51:16.280Z,68.80
2022-07-28T00:53:45.282Z,68.90
2022-07-28T00:56:13.754Z,69.20
2022-07-28T00:58:42.222Z,69.10
2022-07-28T01:01:11.781Z,69.10
2022-07-28T01:03:41.841Z,69.30
2022-07-28T01:06:31.642Z,69.60
2022-07-28T01:09:06.210Z,69.60
2022-07-28T01:11:43.516Z,69.80
2022-07-28T01:14:21.210Z,69.80
2022-07-28T01:16:55.583Z,70.30
2022-07-28T01:19:37.061Z,70.50
2022-07-28T01:22:06.989Z,70.60
2022-07-28T01:24:45.143Z,71.00
2022-07-28T01:27:29.663Z,70.90
2022-07-28T01:30:06.788Z,70.50
2022-07-28T01:32:41.211Z,70.30
2022-07-28T01:35:13.807Z,70.20
2022-07-28T01:37:46.108Z,70.10
2022-07-28T01:40:18.590Z,70.20
2022-07-28T01:42:50.302Z,70.40
2022-07-28T01:45:20.259Z,70.20
2022-07-28T01:47:50.910Z,70.70
2022-07-28T01:50:22.424Z,71.10
2022-07-28T01:52:52.112Z,71.10
2022-07-28T01:55:22.347Z,71.30
2022-07-28T01:57:51.960Z,71.20
2022-07-28T02:00:20.428Z,71.30
2022-07-28T02:02:52.003Z,71.30
2022-07-28T02:05:21.910Z,71.10
2022-07-28T02:07:52.142Z,70.90
2022-07-28T02:10:22.313Z,70.60
2022-07-28T02:12:52.755Z,70.40
2022-07-28T02:15:22.615Z,70.10
2022-07-28T02:17:53.743Z,70.00
2022-07-28T02:20:21.752Z,69.90
2022-07-28T02:22:53.991Z,70.00
2022-07-28T02:25:22.418Z,70.10
2022-07-28T02:27:54.537Z,70.50
2022-07-28T02:30:29.527Z,70.40
2022-07-28T02:33:03.221Z,71.10
2022-07-28T02:35:40.969Z,71.10
2022-07-28T02:38:13.162Z,71.20
2022-07-28T02:40:43.951Z,71.50
2022-07-28T02:43:20.889Z,71.60
2022-07-28T02:45:54.553Z,72.00
2022-07-28T02:48:30.497Z,72.10
2022-07-28T02:51:00.534Z,72.10
2022-07-28T02:53:30.097Z,72.10
2022-07-28T02:55:59.438Z,71.90
2022-07-28T02:58:29.491Z,71.80
2022-07-28T03:00:58.863Z,71.80
2022-07-28T03:03:28.652Z,71.70
2022-07-28T03:05:56.776Z,71.60
2022-07-28T03:08:24.694Z,71.70
2022-07-28T03:11:07.846Z,71.70
2022-07-28T03:13:35.770Z,71.60
2022-07-28T03:16:03.695Z,71.60
2022-07-28T03:18:33.215Z,71.80
2022-07-28T03:21:01.073Z,71.70
2022-07-28T03:23:34.362Z,72.30
2022-07-28T03:26:07.897Z,72.30
2022-07-28T03:28:37.848Z,72.60
2022-07-28T03:31:10.039Z,72.80
2022-07-28T03:33:40.223Z,72.90
2022-07-28T03:36:13.079Z,72.90
2022-07-28T03:38:45.415Z,73.00
2022-07-28T03:41:16.010Z,73.10
2022-07-28T03:43:45.363Z,73.20
2022-07-28T03:46:14.029Z,73.10
2022-07-28T03:48:43.474Z,73.10
2022-07-28T03:51:11.411Z,73.30
2022-07-28T03:53:40.099Z,73.60
2022-07-28T03:56:08.086Z,72.90
2022-07-28T03:58:35.986Z,72.80
2022-07-28T04:01:03.954Z,72.90
2022-07-28T04:03:43.571Z,72.90
2022-07-28T04:06:13.971Z,72.90
2022-07-28T04:08:42.219Z,72.90
2022-07-28T04:11:10.111Z,73.00
2022-07-28T04:13:37.944Z,73.10
2022-07-28T04:16:06.781Z,72.90
2022-07-28T04:18:34.795Z,73.40
2022-07-28T04:21:02.798Z,73.20
2022-07-28T04:23:31.967Z,73.20
2022-07-28T04:26:00.070Z,73.50
2022-07-28T04:28:27.981Z,73.40
2022-07-28T04:30:55.897Z,73.60
2022-07-28T04:33:24.779Z,73.70
2022-07-28T04:35:53.075Z,73.50
2022-07-28T04:38:21.407Z,73.60
2022-07-28T04:40:50.913Z,73.60
2022-07-28T04:43:18.862Z,74.00
2022-07-28T04:45:54.134Z,73.90
2022-07-28T04:48:23.185Z,74.00
2022-07-28T04:50:52.736Z,74.20
2022-07-28T04:53:21.276Z,74.80
2022-07-28T04:55:51.663Z,74.90
2022-07-28T04:58:22.662Z,75.10
2022-07-28T05:00:51.529Z,74.80
2022-07-28T05:03:20.192Z,75.00
2022-07-28T05:05:51.379Z,75.00
2022-07-28T05:08:22.541Z,74.90
2022-07-28T05:10:56.232Z,74.90
2022-07-28T05:13:26.796Z,75.00
2022-07-28T05:15:57.163Z,74.90
2022-07-28T05:18:25.047Z,75.10
2022-07-28T05:20:52.956Z,75.20
2022-07-28T05:23:20.874Z,74.90
2022-07-28T05:25:48.945Z,74.80
2022-07-28T05:28:18.361Z,75.10
2022-07-28T05:30:47.478Z,75.10
2022-07-28T05:33:16.498Z,75.10
2022-07-28T05:35:44.967Z,75.20
2022-07-28T05:38:13.362Z,75.40
2022-07-28T05:40:41.268Z,75.30
2022-07-28T05:43:09.168Z,75.20
2022-07-28T05:45:38.470Z,75.10
2022-07-28T05:48:06.779Z,75.10
2022-07-28T05:50:34.985Z,75.20
2022-07-28T05:53:02.945Z,75.20
2022-07-28T05:55:31.020Z,75.30
2022-07-28T05:58:00.195Z,75.10
2022-07-28T06:00:29.225Z,75.20
2022-07-28T06:03:01.920Z,75.20
2022-07-28T06:05:31.210Z,75.00
2022-07-28T06:08:00.565Z,75.30
2022-07-28T06:10:50.566Z,75.00
2022-07-28T06:13:19.020Z,74.70
2022-07-28T06:15:48.065Z,74.60
2022-07-28T06:18:17.303Z,75.00
2022-07-28T06:20:45.248Z,74.50
2022-07-28T06:23:13.237Z,74.60
2022-07-28T06:25:41.259Z,74.70
2022-07-28T06:28:09.192Z,74.70
2022-07-28T06:30:37.079Z,74.80
2022-07-28T06:33:06.884Z,74.80
2022-07-28T06:35:45.282Z,75.10
2022-07-28T06:38:20.256Z,75.30
2022-07-28T06:40:48.497Z,75.30
2022-07-28T06:43:16.301Z,75.10
2022-07-28T06:45:44.991Z,75.20
2022-07-28T06:48:13.714Z,75.10
2022-07-28T06:50:43.440Z,75.10
2022-07-28T06:53:11.345Z,75.00
2022-07-28T06:55:41.239Z,75.50
2022-07-28T06:58:09.606Z,75.50
2022-07-28T07:00:37.525Z,75.90
2022-07-28T07:03:09.605Z,75.30
2022-07-28T07:05:37.893Z,75.80
2022-07-28T07:08:07.597Z,75.80
2022-07-28T07:10:36.133Z,75.40
2022-07-28T07:13:04.292Z,76.50
2022-07-28T07:15:32.235Z,75.40
2022-07-28T07:18:02.824Z,75.20
2022-07-28T07:20:30.706Z,75.40
2022-07-28T07:22:58.682Z,75.90
2022-07-28T07:25:28.074Z,76.20
2022-07-28T07:27:56.020Z,76.20
2022-07-28T07:30:23.914Z,76.20
2022-07-28T07:32:51.743Z,76.10
2022-07-28T07:35:20.082Z,76.20
2022-07-28T07:37:47.980Z,75.80
2022-07-28T07:40:15.929Z,75.30
2022-07-28T07:42:45.156Z,75.50
2022-07-28T07:45:13.226Z,75.30
2022-07-28T07:47:41.132Z,75.40
2022-07-28T07:50:09.706Z,75.20
2022-07-28T07:52:37.571Z,75.70
2022-07-28T07:55:06.437Z,75.30
2022-07-28T07:57:34.902Z,75.40
2022-07-28T08:00:04.530Z,75.00
2022-07-28T08:02:32.472Z,75.00
2022-07-28T08:05:00.687Z,75.00
2022-07-28T08:07:29.299Z,74.50
2022-07-28T08:09:57.183Z,74.50
2022-07-28T08:12:25.637Z,74.40
2022-07-28T08:14:53.762Z,74.40
2022-07-28T08:17:25.822Z,74.50
2022-07-28T08:19:54.158Z,74.00
2022-07-28T08:22:22.309Z,74.30
2022-07-28T08:24:50.319Z,75.00
2022-07-28T08:27:18.480Z,74.90
2022-07-28T08:29:46.840Z,74.60
2022-07-28T08:32:14.934Z,74.50
2022-07-28T08:34:44.362Z,74.50
2022-07-28T08:37:12.447Z,73.90
2022-07-28T08:39:40.318Z,74.20
2022-07-28T08:42:13.208Z,75.00
2022-07-28T08:44:48.702Z,74.60
2022-07-28T08:47:17.559Z,75.10
2022-07-28T08:49:49.471Z,75.10
2022-07-28T08:52:20.755Z,74.50
2022-07-28T08:54:50.507Z,74.10
2022-07-28T08:57:21.277Z,74.10
2022-07-28T08:59:50.981Z,74.20
2022-07-28T09:02:19.794Z,74.50
2022-07-28T09:04:50.860Z,74.50
2022-07-28T09:07:19.078Z,74.60
2022-07-28T09:09:49.584Z,74.30
2022-07-28T09:12:17.750Z,74.00
2022-07-28T09:14:45.820Z,74.70
2022-07-28T09:17:13.971Z,74.20
2022-07-28T09:19:41.913Z,73.80
2022-07-28T09:22:11.156Z,73.60
2022-07-28T09:24:40.910Z,73.00
2022-07-28T09:27:11.263Z,74.10
2022-07-28T09:29:42.028Z,73.90
2022-07-28T09:32:10.487Z,74.20
2022-07-28T09:34:42.712Z,73.40
2022-07-28T09:37:24.798Z,73.60
2022-07-28T09:39:59.787Z,73.00
2022-07-28T09:42:45.422Z,72.90
2022-07-28T09:45:22.961Z,72.50
2022-07-28T09:48:11.893Z,72.70
2022-07-28T09:50:41.126Z,72.50
2022-07-28T09:53:28.708Z,71.70
2022-07-28T09:55:58.757Z,71.10
2022-07-28T09:58:26.937Z,71.80
2022-07-28T10:01:07.924Z,71.40
2022-07-28T10:03:37.055Z,71.00
2022-07-28T10:06:09.406Z,71.10
2022-07-28T10:08:43.553Z,71.30
2022-07-28T10:11:12.170Z,71.00
2022-07-28T10:13:59.879Z,70.90
2022-07-28T10:16:29.490Z,71.10
2022-07-28T10:18:59.462Z,70.10
2022-07-28T10:21:28.691Z,70.20
2022-07-28T10:23:59.862Z,69.60
2022-07-28T10:26:32.089Z,69.00
2022-07-28T10:29:04.643Z,69.20
2022-07-28T10:31:46.306Z,68.80
2022-07-28T10:34:24.573Z,68.30
2022-07-28T10:36:55.323Z,67.80
2022-07-28T10:39:29.737Z,67.60
2022-07-28T10:41:58.250Z,68.10
2022-07-28T10:44:27.101Z,67.50
2022-07-28T10:46:55.677Z,68.30
2022-07-28T10:49:27.612Z,67.00
2022-07-28T10:52:02.539Z,66.80
2022-07-28T10:54:43.679Z,67.00
2022-07-28T10:57:13.519Z,67.30
2022-07-28T11:00:12.601Z,66.70
2022-07-28T11:02:48.900Z,66.10
2022-07-28T11:05:33.445Z,65.70
2022-07-28T11:08:03.469Z,65.30
2022-07-28T11:10:45.272Z,65.30
2022-07-28T11:13:33.275Z,66.20
2022-07-28T11:16:19.742Z,65.50
2022-07-28T11:19:38.012Z,65.60
2022-07-28T11:22:29.204Z,65.70
2022-07-28T11:25:18.928Z,65.10
2022-07-28T11:28:06.787Z,65.40
2022-07-28T11:30:58.845Z,65.20
2022-07-28T11:33:56.415Z,64.30
2022-07-28T11:36:24.371Z,64.00
2022-07-28T11:39:24.923Z,64.00
2022-07-28T11:41:52.854Z,63.80
2022-07-28T11:44:27.538Z,64.30
2022-07-28T11:47:15.995Z,64.40
2022-07-28T11:49:44.796Z,64.30
2022-07-28T11:52:18.295Z,63.90
2022-07-28T11:54:57.364Z,64.00
2022-07-28T11:57:26.875Z,64.50
2022-07-28T12:00:01.795Z,63.80
2022-07-28T12:02:31.840Z,64.00
2022-07-28T12:05:22.128Z,63.60
2022-07-28T12:07:54.026Z,62.80
2022-07-28T12:13:27.875Z,63.20
2022-07-28T12:15:57.501Z,62.70
2022-07-28T12:18:25.546Z,62.70
2022-07-28T12:20:54.539Z,62.20
2022-07-28T12:23:46.000Z,62.10
2022-07-28T12:26:34.564Z,61.20
2022-07-28T12:29:11.751Z,61.00
2022-07-28T12:31:51.142Z,60.90
2022-07-28T12:34:20.601Z,61.10
2022-07-28T12:36:49.361Z,61.60
2022-07-28T12:39:19.537Z,60.50
2022-07-28T12:41:47.446Z,60.50
2022-07-28T12:44:15.747Z,60.50
2022-07-28T12:46:48.885Z,60.30
2022-07-28T12:49:23.138Z,60.00
2022-07-28T12:51:51.066Z,59.80
2022-07-28T12:54:18.981Z,59.70
2022-07-28T12:56:48.209Z,60.20
2022-07-28T12:59:18.445Z,60.10
2022-07-28T13:01:52.966Z,59.70
2022-07-28T13:04:39.952Z,59.70
2022-07-28T13:07:10.588Z,59.30
2022-07-28T13:09:41.495Z,59.40
2022-07-28T13:12:16.395Z,59.20
2022-07-28T13:14:46.055Z,59.10
2022-07-28T13:17:15.516Z,60.10
2022-07-28T13:19:45.372Z,59.10
2022-07-28T13:22:13.508Z,59.10
2022-07-28T13:24:41.399Z,58.70
2022-07-28T13:27:09.246Z,58.50
2022-07-28T13:29:37.094Z,58.90
2022-07-28T13:32:05.286Z,58.40
2022-07-28T13:34:34.851Z,58.30
2022-07-28T13:37:02.763Z,58.50
2022-07-28T13:39:30.663Z,58.00
2022-07-28T13:41:59.429Z,58.10
2022-07-28T13:44:27.796Z,57.80
2022-07-28T13:46:55.884Z,57.70
2022-07-28T13:49:24.564Z,58.00
2022-07-28T13:51:54.648Z,58.30
2022-07-28T13:54:23.039Z,58.30
2022-07-28T13:56:52.009Z,58.20
2022-07-28T13:59:19.987Z,58.60
2022-07-28T14:01:49.838Z,58.60
2022-07-28T14:04:18.555Z,58.50
2022-07-28T14:06:49.416Z,58.50
2022-07-28T14:09:21.202Z,58.50
2022-07-28T14:11:54.075Z,58.20
2022-07-28T14:14:24.519Z,57.90
2022-07-28T14:16:54.651Z,57.90
2022-07-28T14:19:38.258Z,58.30
2022-07-28T14:22:12.818Z,58.30
2022-07-28T14:24:43.543Z,58.20
2022-07-28T14:27:11.928Z,58.60
2022-07-28T14:29:39.936Z,57.70
2022-07-28T14:32:08.121Z,57.50
2022-07-28T14:34:36.011Z,57.30
2022-07-28T14:37:08.454Z,57.50
2022-07-28T14:39:37.601Z,57.10
2022-07-28T14:42:07.235Z,57.70
2022-07-28T14:44:35.420Z,57.10
2022-07-28T14:47:03.784Z,56.70
2022-07-28T14:49:31.859Z,57.10
2022-07-28T14:52:00.180Z,56.90
2022-07-28T14:54:28.683Z,56.40
2022-07-28T14:56:57.014Z,56.10
2022-07-28T14:59:26.277Z,55.80
2022-07-28T15:01:54.254Z,55.80
2022-07-28T15:04:22.452Z,56.50
2022-07-28T15:06:50.382Z,56.60
2022-07-28T15:09:18.298Z,56.20
2022-07-28T15:11:47.342Z,56.00
2022-07-28T15:14:16.406Z,56.00
2022-07-28T15:16:50.939Z,56.00
2022-07-28T15:19:18.969Z,55.90
2022-07-28T15:21:47.474Z,56.10
2022-07-28T15:24:16.240Z,56.90
2022-07-28T15:26:44.480Z,56.80
2022-07-28T15:29:12.344Z,56.60
2022-07-28T15:31:42.569Z,56.10
2022-07-28T15:34:15.428Z,55.60
2022-07-28T15:36:43.611Z,55.50
2022-07-28T15:39:13.984Z,55.80
2022-07-28T15:41:43.146Z,56.00
2022-07-28T15:44:12.415Z,55.80
2022-07-28T15:46:41.533Z,55.30
2022-07-28T15:49:11.211Z,55.60
2022-07-28T15:51:41.238Z,55.20
2022-07-28T15:54:09.403Z,55.60
2022-07-28T15:56:40.337Z,55.90
2022-07-28T15:59:08.541Z,55.40
2022-07-28T16:01:37.407Z,55.10
2022-07-28T16:04:06.876Z,55.30
2022-07-28T16:06:52.926Z,55.80
2022-07-28T16:09:22.727Z,56.00
2022-07-28T16:11:50.796Z,56.20
2022-07-28T16:14:19.130Z,55.60
2022-07-28T16:16:47.809Z,55.40
2022-07-28T16:19:38.651Z,55.40
2022-07-28T16:22:04.117Z,55.10
2022-07-28T16:24:33.402Z,55.00
2022-07-28T16:27:01.259Z,55.20
2022-07-28T16:29:29.241Z,55.40
2022-07-28T16:31:57.242Z,55.00
2022-07-28T16:34:25.125Z,55.30
2022-07-28T16:36:53.769Z,55.60
2022-07-28T16:39:21.714Z,55.40
2022-07-28T16:41:52.796Z,55.50
2022-07-28T16:44:21.267Z,55.30
2022-07-28T16:46:49.947Z,55.00
2022-07-28T16:49:17.954Z,55.20
2022-07-28T16:51:45.836Z,55.10
2022-07-28T16:54:14.397Z,54.70
2022-07-28T16:56:42.831Z,54.50
2022-07-28T16:59:12.140Z,54.60
2022-07-28T17:01:45.579Z,55.10
2022-07-28T17:04:14.988Z,54.70
2022-07-28T17:06:43.417Z,54.40
2022-07-28T17:09:11.656Z,54.40
2022-07-28T17:11:40.706Z,54.40
2022-07-28T17:14:13.016Z,54.60
2022-07-28T17:16:41.082Z,54.80
2022-07-28T17:19:09.112Z,54.70
2022-07-28T17:21:37.382Z,54.80
2022-07-28T17:24:06.628Z,54.70
2022-07-28T17:29:24.130Z,55.00
2022-07-28T17:31:52.079Z,55.00
2022-07-28T17:34:19.960Z,55.00
2022-07-28T17:36:48.121Z,54.90
2022-07-28T17:39:16.349Z,55.10
2022-07-28T17:41:44.222Z,54.80
2022-07-28T17:44:12.309Z,54.80
2022-07-28T17:46:41.888Z,54.80
2022-07-28T17:49:10.682Z,55.00
2022-07-28T17:51:38.661Z,54.60
2022-07-28T17:54:06.764Z,54.70
2022-07-28T17:56:36.884Z,54.60
2022-07-28T17:59:05.989Z,55.20
2022-07-28T18:01:34.019Z,55.30
2022-07-28T18:04:03.314Z,55.90
2022-07-28T18:06:33.815Z,56.10
2022-07-28T18:09:06.556Z,56.40
2022-07-28T18:11:55.181Z,56.40
2022-07-28T18:14:25.507Z,56.20
2022-07-28T18:16:53.403Z,56.70
2022-07-28T18:19:22.684Z,56.30
2022-07-28T18:21:50.711Z,56.20
2022-07-28T18:24:21.595Z,56.30
2022-07-28T18:26:49.516Z,56.00
2022-07-28T18:29:17.690Z,56.20
2022-07-28T18:31:46.888Z,56.10
2022-07-28T18:34:15.600Z,56.00
2022-07-28T18:36:45.814Z,55.60
2022-07-28T18:39:13.743Z,55.60
2022-07-28T18:41:46.982Z,56.00
2022-07-28T18:44:16.679Z,56.30
2022-07-28T18:46:45.319Z,55.80
2022-07-28T18:49:13.541Z,56.50
2022-07-28T18:51:44.916Z,56.70
2022-07-28T18:54:18.934Z,56.70
2022-07-28T18:56:49.707Z,56.80
2022-07-28T18:59:17.629Z,57.00
2022-07-28T19:01:45.835Z,57.20
2022-07-28T19:04:14.096Z,57.10
2022-07-28T19:06:43.523Z,57.30
2022-07-28T19:09:11.379Z,57.40
2022-07-28T19:11:45.695Z,57.30
2022-07-28T19:14:14.677Z,57.50
2022-07-28T19:16:42.888Z,57.30
2022-07-28T19:19:11.089Z,57.50
2022-07-28T19:21:43.303Z,57.40
2022-07-28T19:24:11.932Z,57.30
2022-07-28T19:26:41.545Z,57.60
2022-07-28T19:29:09.646Z,57.50
2022-07-28T19:31:37.934Z,57.50
2022-07-28T19:34:06.539Z,57.60
2022-07-28T19:36:37.118Z,57.50
2022-07-28T19:39:05.443Z,57.50
2022-07-28T19:41:33.375Z,57.70
2022-07-28T19:44:02.574Z,57.60
2022-07-28T19:46:30.579Z,57.80
2022-07-28T19:48:58.610Z,57.70
2022-07-28T19:51:27.057Z,57.90
2022-07-28T19:53:58.501Z,57.80
2022-07-28T19:56:31.200Z,58.10
2022-07-28T19:58:59.652Z,58.20
2022-07-28T20:01:29.276Z,58.10
2022-07-28T20:04:03.774Z,58.30
2022-07-28T20:06:42.906Z,58.00
2022-07-28T20:09:12.510Z,58.00
2022-07-28T20:11:40.776Z,58.00
2022-07-28T20:14:08.839Z,58.00
2022-07-28T20:16:38.127Z,57.90
2022-07-28T20:19:06.067Z,57.80
2022-07-28T20:21:38.365Z,57.80
2022-07-28T20:24:07.917Z,58.00
2022-07-28T20:26:35.829Z,58.20
2022-07-28T20:29:05.783Z,58.50
2022-07-28T20:31:33.793Z,58.60
2022-07-28T20:34:06.497Z,59.10
2022-07-28T20:36:34.987Z,59.40
2022-07-28T20:39:15.719Z,59.60
2022-07-28T20:41:50.985Z,59.70
2022-07-28T20:44:28.911Z,60.50
2022-07-28T20:46:58.483Z,60.00
2022-07-28T20:49:28.668Z,59.60
2022-07-28T20:51:56.775Z,59.80
2022-07-28T20:54:24.816Z,59.20
2022-07-28T20:56:52.680Z,59.10
2022-07-28T20:59:20.621Z,58.90
2022-07-28T21:01:48.606Z,58.50
2022-07-28T21:04:16.781Z,58.60
2022-07-28T21:06:50.863Z,58.50
2022-07-28T21:09:20.128Z,58.30
2022-07-28T21:11:48.046Z,58.40
2022-07-28T21:14:16.582Z,58.30
2022-07-28T21:16:44.761Z,58.40
2022-07-28T21:19:12.704Z,58.20
2022-07-28T21:21:40.572Z,58.30
2022-07-28T21:24:10.332Z,58.40
2022-07-28T21:26:38.266Z,58.60
2022-07-28T21:32:04.966Z,58.80
2022-07-28T21:34:31.984Z,58.70
2022-07-28T21:37:02.417Z,59.10
2022-07-28T21:39:31.765Z,59.30
2022-07-28T21:42:00.084Z,59.20
2022-07-28T21:44:28.048Z,59.50
2022-07-28T21:46:55.941Z,59.80
2022-07-28T21:49:23.893Z,59.60
2022-07-28T21:51:51.887Z,59.80
2022-07-28T21:54:20.208Z,59.70
2022-07-28T21:56:50.118Z,59.80
2022-07-28T21:59:18.005Z,59.80
2022-07-28T22:01:45.917Z,59.90
2022-07-28T22:04:14.284Z,60.00
2022-07-28T22:06:46.055Z,59.90
2022-07-28T22:09:15.054Z,60.20
2022-07-28T22:11:43.207Z,60.60
2022-07-28T22:14:12.629Z,60.60
2022-07-28T22:16:40.964Z,60.50
2022-07-28T22:19:11.742Z,60.50
2022-07-28T22:21:39.710Z,60.70
2022-07-28T22:24:08.614Z,60.90
2022-07-28T22:26:36.551Z,61.20
2022-07-28T22:29:04.439Z,61.40
2022-07-28T22:31:33.730Z,61.80
2022-07-28T22:34:01.649Z,61.90
2022-07-28T22:36:29.470Z,62.20
2022-07-28T22:38:57.378Z,62.50
2022-07-28T22:41:25.318Z,63.00
2022-07-28T22:43:54.386Z,63.20
2022-07-28T22:46:22.363Z,63.40
2022-07-28T22:48:51.749Z,63.50
2022-07-28T22:51:19.708Z,63.80
2022-07-28T22:53:47.555Z,63.90
2022-07-28T22:56:15.689Z,64.10
2022-07-28T22:58:43.604Z,64.00
2022-07-28T23:01:11.779Z,63.90
2022-07-28T23:03:40.243Z,64.00
2022-07-28T23:06:09.491Z,64.10
2022-07-28T23:08:37.373Z,64.30
2022-07-28T23:11:06.798Z,64.40
2022-07-28T23:13:34.630Z,65.00
2022-07-28T23:16:02.549Z,65.30
2022-07-28T23:18:30.453Z,65.70
2022-07-28T23:20:58.355Z,66.20
2022-07-28T23:23:27.558Z,66.40
2022-07-28T23:25:55.473Z,66.80
2022-07-28T23:28:23.303Z,67.30
2022-07-28T23:30:51.795Z,67.50
2022-07-28T23:33:55.799Z,68.00
2022-07-28T23:36:09.656Z,68.20
2022-07-28T23:38:46.251Z,68.60
2022-07-28T23:41:15.276Z,68.60
2022-07-28T23:43:43.574Z,69.00
2022-07-28T23:46:11.643Z,69.30
2022-07-28T23:48:39.549Z,69.20
2022-07-28T23:51:07.518Z,69.60
2022-07-28T23:53:37.442Z,69.60
2022-07-28T23:56:07.580Z,69.90
2022-07-28T23:58:35.844Z,70.30
